New Haven, West Virginia
Current Conditions -  °F | °C
As of 2:15 PM on Friday 28 Nov 2014 (Local Time) from K3I2 Reporting Station
Scattered Clouds Scattered Clouds  
Wind Chill: 33°   Ceiling: Unl
Heat Index: 37°   Visibility: 10mi
Dew Point: 18°   Wind: 6mph
Humidity: 45%   Direction: 240°WSW
Pressure: 30.31"   Gusts: NA
Location:  38.99°N, 81.97°W
Report Text: K3I2 281915Z AUTO 24005KT 10SM SCT090 03/M08 A3031 RMK AO2
Loading
Personal Weather Stations






























Interactive Weather Map New forecast layout! Learn more

10-Day Weather Forecast

Advertisements
Track Severe Weather on mobile